Time;durP1;ratioP1;P1;durP2;ratioP2;P2;SDS_P1;SDS_P2;PMS_P1;PMS_P2;Temp;Humidity;BMP_temperature;BMP_pressure;BME280_temperature;BME280_humidity;BME280_pressure;Samples;Min_cycle;Max_cycle;Signal;HPM_P1;HPM_P2
2021/10/18 00:02:19;;;;;;;43.23;17.20;;;5.80;99.90;;;;;;4936101;29;20179;-60
2021/10/18 00:04:44;;;;;;;63.57;16.00;;;5.80;99.90;;;;;;4953415;29;20186;-59
2021/10/18 00:07:10;;;;;;;43.33;17.97;;;5.80;99.90;;;;;;4970658;23;20202;-59
2021/10/18 00:09:36;;;;;;;30.83;15.57;;;5.80;99.90;;;;;;4961904;28;20622;-57
2021/10/18 00:12:02;;;;;;;41.67;16.87;;;5.80;99.90;;;;;;4978587;28;20630;-56
2021/10/18 00:14:28;;;;;;;49.23;18.00;;;5.80;99.90;;;;;;4966051;28;20261;-58
2021/10/18 00:16:53;;;;;;;32.47;16.30;;;5.80;99.90;;;;;;4970861;28;20499;-56
2021/10/18 00:19:19;;;;;;;47.03;16.30;;;5.70;99.90;;;;;;4937791;28;20238;-58
2021/10/18 00:21:45;;;;;;;39.03;14.60;;;5.70;99.90;;;;;;4960828;28;20341;-59
2021/10/18 00:24:11;;;;;;;30.67;14.40;;;5.70;99.90;;;;;;4966604;28;20178;-57
2021/10/18 00:26:36;;;;;;;29.20;13.40;;;5.70;99.90;;;;;;4950756;28;20659;-58
2021/10/18 00:29:02;;;;;;;32.30;12.90;;;5.70;99.90;;;;;;4938354;28;20210;-57
2021/10/18 00:31:28;;;;;;;33.03;15.07;;;5.70;99.90;;;;;;4940031;28;20261;-56
2021/10/18 00:33:54;;;;;;;105.37;16.20;;;5.70;99.90;;;;;;4952371;29;20419;-57
2021/10/18 00:36:20;;;;;;;36.57;15.57;;;5.70;99.90;;;;;;4950581;28;20210;-58
2021/10/18 00:38:45;;;;;;;70.13;15.70;;;5.70;99.90;;;;;;4932902;29;20707;-58
2021/10/18 00:41:11;;;;;;;66.53;16.00;;;5.60;99.90;;;;;;4948562;28;20265;-55
2021/10/18 00:43:42;;;;;;;102.73;16.90;;;5.60;99.90;;;;;;4950551;28;20214;-57
2021/10/18 00:46:08;;;;;;;32.70;15.70;;;5.60;99.90;;;;;;4961946;28;20179;-59
2021/10/18 00:48:34;;;;;;;85.43;15.27;;;5.50;99.90;;;;;;4950850;28;20449;-58
2021/10/18 00:50:59;;;;;;;43.33;16.00;;;5.50;99.90;;;;;;4953891;28;20170;-58
2021/10/18 00:53:26;;;;;;;34.30;14.67;;;5.40;99.90;;;;;;4949818;28;20193;-57
2021/10/18 00:55:53;;;;;;;42.60;15.17;;;5.40;99.90;;;;;;4932445;29;20271;-58
2021/10/18 00:58:20;;;;;;;68.23;17.70;;;5.40;99.90;;;;;;4957723;28;21013;-57
2021/10/18 01:00:46;;;;;;;34.80;16.97;;;5.40;99.90;;;;;;4966134;28;20421;-58
2021/10/18 01:03:12;;;;;;;40.50;14.80;;;5.40;99.90;;;;;;4956746;28;20505;-57
2021/10/18 01:05:41;;;;;;;45.33;15.97;;;5.40;99.90;;;;;;4937654;28;20526;-58
2021/10/18 01:08:08;;;;;;;41.53;17.80;;;5.40;99.90;;;;;;4933777;28;20286;-59
2021/10/18 01:10:34;;;;;;;61.40;17.80;;;5.50;99.90;;;;;;4946891;28;20483;-58
2021/10/18 01:12:59;;;;;;;55.10;18.37;;;5.50;99.90;;;;;;4934575;28;20415;-58
2021/10/18 01:15:25;;;;;;;118.60;18.13;;;5.40;99.90;;;;;;4941770;28;20174;-58
2021/10/18 01:17:51;;;;;;;55.90;17.77;;;5.40;99.90;;;;;;4950751;29;20542;-58
2021/10/18 01:20:32;;;;;;;54.53;15.00;;;5.40;99.90;;;;;;4952420;28;20678;-58
2021/10/18 01:22:59;;;;;;;48.93;16.10;;;5.40;99.90;;;;;;4965094;28;20228;-56
2021/10/18 01:25:25;;;;;;;36.43;16.83;;;5.40;99.90;;;;;;4979644;28;20537;-58
2021/10/18 01:27:51;;;;;;;36.30;15.87;;;5.40;99.90;;;;;;4945229;28;20466;-59
2021/10/18 01:30:17;;;;;;;154.97;20.80;;;5.30;99.90;;;;;;4946154;29;20438;-57
2021/10/18 01:32:43;;;;;;;57.00;17.53;;;5.40;99.90;;;;;;4934327;29;20429;-57
2021/10/18 01:35:10;;;;;;;78.53;18.40;;;5.40;99.90;;;;;;4951488;28;20399;-57
2021/10/18 01:37:36;;;;;;;41.47;17.70;;;5.30;99.90;;;;;;4932737;28;20254;-57
2021/10/18 01:40:14;;;;;;;113.83;19.40;;;5.30;99.90;;;;;;4930567;29;20489;-57
2021/10/18 01:42:42;;;;;;;60.30;16.50;;;5.30;99.90;;;;;;4933838;29;20445;-57
2021/10/18 01:45:09;;;;;;;52.27;15.90;;;5.30;99.90;;;;;;4939425;28;20473;-58
2021/10/18 01:47:35;;;;;;;39.13;16.63;;;5.20;99.90;;;;;;4956573;28;20566;-56
2021/10/18 01:50:09;;;;;;;116.20;18.00;;;5.20;99.90;;;;;;4948625;28;20893;-58
2021/10/18 01:52:35;;;;;;;89.50;15.73;;;5.20;99.90;;;;;;4951975;28;20190;-57
2021/10/18 01:55:01;;;;;;;48.80;14.43;;;5.10;99.90;;;;;;4952568;28;20521;-58
2021/10/18 01:57:26;;;;;;;101.70;16.90;;;5.10;99.90;;;;;;4949474;29;20194;-58
2021/10/18 01:59:52;;;;;;;50.43;15.20;;;5.00;99.90;;;;;;4935596;28;20671;-58
2021/10/18 02:02:18;;;;;;;91.30;17.60;;;5.00;99.90;;;;;;4937496;29;20193;-56
2021/10/18 02:04:44;;;;;;;167.13;19.40;;;5.00;99.90;;;;;;4931230;29;20189;-59
2021/10/18 02:07:10;;;;;;;42.03;13.90;;;4.90;99.90;;;;;;4948588;28;20273;-56
2021/10/18 02:09:35;;;;;;;50.03;16.37;;;4.90;99.90;;;;;;4962910;28;20522;-59
2021/10/18 02:12:01;;;;;;;41.10;16.00;;;4.90;99.90;;;;;;4963774;28;20209;-55
2021/10/18 02:14:26;;;;;;;74.47;16.87;;;4.90;99.90;;;;;;4950802;28;20274;-58
2021/10/18 02:16:52;;;;;;;77.47;15.67;;;4.90;99.90;;;;;;4965480;28;20524;-58
2021/10/18 02:19:18;;;;;;;53.37;15.10;;;4.90;99.90;;;;;;4955744;28;20634;-58
2021/10/18 02:21:44;;;;;;;68.53;15.83;;;4.90;99.90;;;;;;4938273;28;20250;-58
2021/10/18 02:24:09;;;;;;;141.97;18.50;;;4.90;99.90;;;;;;4946306;28;20605;-58
2021/10/18 02:26:35;;;;;;;100.27;15.07;;;4.90;99.90;;;;;;4945198;28;20689;-58
2021/10/18 02:29:00;;;;;;;72.33;14.07;;;4.90;99.90;;;;;;4941503;29;20268;-57
2021/10/18 02:31:26;;;;;;;37.10;13.60;;;4.80;99.90;;;;;;4931705;29;20175;-58
2021/10/18 02:33:52;;;;;;;57.80;13.43;;;4.80;99.90;;;;;;4931676;29;20480;-58
2021/10/18 02:36:17;;;;;;;29.57;13.20;;;4.80;99.90;;;;;;4935532;29;20179;-57
2021/10/18 02:38:43;;;;;;;46.87;12.77;;;4.80;99.90;;;;;;4931948;29;20191;-58
2021/10/18 02:41:09;;;;;;;95.80;14.07;;;4.90;99.90;;;;;;4950761;28;20189;-58
2021/10/18 02:43:34;;;;;;;61.83;13.47;;;4.90;99.90;;;;;;4959122;28;20676;-58
2021/10/18 02:46:00;;;;;;;150.97;15.10;;;4.90;99.90;;;;;;4936973;29;20274;-58
2021/10/18 02:48:25;;;;;;;41.83;12.50;;;4.90;99.90;;;;;;4950737;28;20215;-60
2021/10/18 02:50:52;;;;;;;59.67;13.73;;;4.90;99.90;;;;;;4953971;28;20202;-58
2021/10/18 02:53:19;;;;;;;40.20;12.43;;;4.90;99.90;;;;;;4957850;28;20175;-58
2021/10/18 02:55:45;;;;;;;54.50;13.03;;;4.90;99.90;;;;;;4964184;28;20409;-57
2021/10/18 02:58:10;;;;;;;176.90;15.40;;;4.90;99.90;;;;;;4959088;29;20562;-59
2021/10/18 03:00:36;;;;;;;36.57;11.33;;;4.90;99.90;;;;;;4939304;29;20234;-57
2021/10/18 03:03:02;;;;;;;27.23;10.80;;;4.80;99.90;;;;;;4955767;28;20199;-60
2021/10/18 03:05:28;;;;;;;57.47;13.90;;;4.80;99.90;;;;;;4944565;29;20202;-58
2021/10/18 03:07:54;;;;;;;122.77;16.90;;;4.80;99.90;;;;;;4941664;28;20285;-59
2021/10/18 03:10:53;;;;;;;61.30;16.13;;;4.80;99.90;;;;;;4955022;28;20501;-58
2021/10/18 03:13:18;;;;;;;57.57;15.83;;;4.80;99.90;;;;;;4953320;29;20958;-60
2021/10/18 03:15:44;;;;;;;178.37;20.00;;;4.80;99.90;;;;;;4951546;28;20500;-57
2021/10/18 03:18:11;;;;;;;39.87;14.47;;;4.80;99.90;;;;;;4953894;28;20285;-56
2021/10/18 03:20:36;;;;;;;42.37;13.13;;;4.80;99.90;;;;;;4975697;28;20433;-61
2021/10/18 03:23:03;;;;;;;29.40;13.80;;;4.80;99.90;;;;;;4962728;28;20420;-54
2021/10/18 03:25:34;;;;;;;43.10;12.83;;;4.70;99.90;;;;;;4973002;28;20184;-59
2021/10/18 03:28:01;;;;;;;36.23;11.90;;;4.80;99.90;;;;;;4943135;28;20553;-59
2021/10/18 03:30:29;;;;;;;23.57;10.90;;;4.80;99.90;;;;;;4938107;28;20941;-58
2021/10/18 03:32:56;;;;;;;54.60;12.97;;;4.80;99.90;;;;;;4948798;28;20411;-58
2021/10/18 03:35:22;;;;;;;141.30;40.37;;;4.80;99.90;;;;;;4933860;29;20531;-58
2021/10/18 03:37:47;;;;;;;102.43;30.57;;;4.80;99.90;;;;;;4934549;29;20435;-58
2021/10/18 03:40:16;;;;;;;41.37;15.50;;;4.80;99.90;;;;;;4934541;29;21007;-58
2021/10/18 03:42:42;;;;;;;37.93;10.80;;;4.80;99.90;;;;;;4939953;29;20572;-56
2021/10/18 03:45:10;;;;;;;22.53;11.07;;;4.70;99.90;;;;;;4944495;29;20451;-59
2021/10/18 03:47:36;;;;;;;33.60;11.30;;;4.70;99.90;;;;;;4942511;28;20202;-61
2021/10/18 03:50:03;;;;;;;37.50;10.77;;;4.70;99.90;;;;;;4965611;28;20481;-59
2021/10/18 03:52:29;;;;;;;24.43;11.43;;;4.70;99.90;;;;;;4963412;28;20513;-57
2021/10/18 03:54:55;;;;;;;25.20;11.93;;;4.70;99.90;;;;;;4948998;28;20465;-57
2021/10/18 03:57:21;;;;;;;61.13;12.53;;;4.70;99.90;;;;;;4944429;28;20481;-57
2021/10/18 03:59:47;;;;;;;58.80;10.80;;;4.70;99.90;;;;;;4945151;28;20248;-58
2021/10/18 04:02:14;;;;;;;22.83;9.47;;;4.70;99.90;;;;;;4938924;28;20190;-58
2021/10/18 04:04:40;;;;;;;44.17;10.63;;;4.70;99.90;;;;;;4946632;28;20189;-57
2021/10/18 04:07:05;;;;;;;29.50;10.70;;;4.70;99.90;;;;;;4957004;28;20571;-59
2021/10/18 04:09:31;;;;;;;44.43;12.40;;;4.70;99.90;;;;;;4966080;28;20272;-58
2021/10/18 04:11:57;;;;;;;38.60;11.83;;;4.70;99.90;;;;;;4959692;28;20174;-59
2021/10/18 04:14:22;;;;;;;20.23;10.10;;;4.60;99.90;;;;;;4952453;28;20442;-62
2021/10/18 04:16:48;;;;;;;31.40;10.57;;;4.60;99.90;;;;;;4955489;28;20190;-59
2021/10/18 04:19:14;;;;;;;47.37;10.90;;;4.60;99.90;;;;;;4952532;28;20259;-57
2021/10/18 04:21:40;;;;;;;22.43;12.20;;;4.60;99.90;;;;;;4937010;28;20189;-59
2021/10/18 04:24:05;;;;;;;26.70;11.27;;;4.60;99.90;;;;;;4942414;28;20560;-60
2021/10/18 04:26:31;;;;;;;44.10;11.80;;;4.60;99.90;;;;;;4934624;29;20312;-59
2021/10/18 04:28:57;;;;;;;42.17;11.33;;;4.60;99.90;;;;;;4939202;28;21296;-60
2021/10/18 04:31:26;;;;;;;19.17;10.63;;;4.60;99.90;;;;;;4948453;28;20198;-60
2021/10/18 04:33:52;;;;;;;43.37;11.60;;;4.60;99.90;;;;;;4950613;28;20426;-58
2021/10/18 04:36:18;;;;;;;27.63;13.00;;;4.60;99.90;;;;;;4949498;29;20427;-59
2021/10/18 04:38:44;;;;;;;22.83;10.67;;;4.60;99.90;;;;;;4954984;28;20481;-57
2021/10/18 04:41:10;;;;;;;33.67;11.70;;;4.60;99.90;;;;;;4946822;28;20834;-61
2021/10/18 04:43:35;;;;;;;31.20;11.90;;;4.60;99.90;;;;;;4946301;28;20187;-57
2021/10/18 04:46:01;;;;;;;41.23;13.63;;;4.60;99.90;;;;;;4961922;28;20644;-55
2021/10/18 04:48:26;;;;;;;38.97;11.40;;;4.60;99.90;;;;;;4938308;28;20565;-54
2021/10/18 04:50:52;;;;;;;46.00;12.43;;;4.60;99.90;;;;;;4950707;28;20394;-55
2021/10/18 04:53:18;;;;;;;45.40;12.27;;;4.60;99.90;;;;;;4945173;28;20182;-53
2021/10/18 04:55:44;;;;;;;26.63;10.23;;;4.60;99.90;;;;;;4940277;28;20578;-56
2021/10/18 04:58:09;;;;;;;38.40;10.80;;;4.60;99.90;;;;;;4932424;29;20467;-58
2021/10/18 05:00:42;;;;;;;25.87;9.27;;;4.60;99.90;;;;;;4938390;28;20718;-56
2021/10/18 05:03:07;;;;;;;31.83;10.23;;;4.60;99.90;;;;;;4948598;28;20174;-57
2021/10/18 05:05:35;;;;;;;20.50;9.10;;;4.50;99.90;;;;;;4938819;28;20453;-57
2021/10/18 05:08:04;;;;;;;21.03;9.73;;;4.50;99.90;;;;;;4947946;28;20712;-57
2021/10/18 05:10:31;;;;;;;19.67;8.30;;;4.50;99.90;;;;;;4938417;28;20443;-57
2021/10/18 05:12:57;;;;;;;27.53;8.80;;;4.50;99.90;;;;;;4971886;28;20776;-57
2021/10/18 05:15:23;;;;;;;21.40;9.33;;;4.50;99.90;;;;;;4954157;28;20795;-57
2021/10/18 05:17:49;;;;;;;22.00;9.20;;;4.50;99.90;;;;;;4943438;28;20484;-58
2021/10/18 05:20:15;;;;;;;25.00;8.67;;;4.40;99.90;;;;;;4944048;28;21092;-56
2021/10/18 05:22:40;;;;;;;25.13;9.07;;;4.40;99.90;;;;;;4946840;28;20189;-59
2021/10/18 05:25:08;;;;;;;18.87;8.93;;;4.40;99.90;;;;;;4940397;28;20187;-57
2021/10/18 05:27:34;;;;;;;27.60;9.83;;;4.40;99.90;;;;;;4945267;28;20221;-56
2021/10/18 05:30:00;;;;;;;45.03;12.43;;;4.40;99.90;;;;;;4939374;28;20439;-56
2021/10/18 05:32:26;;;;;;;38.20;11.67;;;4.40;99.90;;;;;;4945582;28;20437;-57
2021/10/18 05:34:51;;;;;;;26.30;9.73;;;4.40;99.90;;;;;;4943597;28;20175;-55
2021/10/18 05:37:17;;;;;;;40.43;9.63;;;4.30;99.90;;;;;;4941169;28;20633;-55
2021/10/18 05:39:43;;;;;;;35.03;9.23;;;4.30;99.90;;;;;;4933186;28;20187;-55
2021/10/18 05:42:08;;;;;;;24.27;8.83;;;4.20;99.90;;;;;;4953129;28;20241;-56
2021/10/18 05:44:34;;;;;;;21.60;8.83;;;4.20;99.90;;;;;;4947960;28;20791;-54
2021/10/18 05:46:59;;;;;;;37.80;8.97;;;4.20;99.90;;;;;;4948103;28;20304;-56
2021/10/18 05:49:25;;;;;;;27.47;8.77;;;4.20;99.90;;;;;;4951385;28;20206;-55
2021/10/18 05:51:52;;;;;;;24.63;9.70;;;4.20;99.90;;;;;;4955605;28;20270;-56
2021/10/18 05:54:17;;;;;;;18.70;8.63;;;4.20;99.90;;;;;;4941626;28;20811;-58
2021/10/18 05:56:43;;;;;;;41.37;9.57;;;4.20;99.90;;;;;;4937550;28;20443;-56
2021/10/18 05:59:09;;;;;;;34.53;8.47;;;4.20;99.90;;;;;;4945940;28;20264;-55
2021/10/18 06:01:34;;;;;;;26.30;8.47;;;4.20;99.90;;;;;;4941152;28;20185;-56
2021/10/18 06:04:03;;;;;;;14.87;8.17;;;4.20;99.90;;;;;;4941686;28;20336;-56
2021/10/18 06:06:31;;;;;;;21.90;8.10;;;4.20;99.90;;;;;;4960529;28;20246;-56
2021/10/18 06:08:57;;;;;;;11.60;7.20;;;4.20;99.90;;;;;;4977635;23;20500;-61
2021/10/18 06:11:23;;;;;;;15.90;7.23;;;4.20;99.90;;;;;;4946936;28;20422;-60
2021/10/18 06:13:48;;;;;;;17.23;8.20;;;4.20;99.90;;;;;;4946164;28;20220;-60
2021/10/18 06:16:14;;;;;;;15.67;7.93;;;4.20;99.90;;;;;;4946810;28;20179;-60
2021/10/18 06:18:40;;;;;;;23.23;8.90;;;4.30;99.90;;;;;;4947060;28;20575;-60
2021/10/18 06:21:05;;;;;;;23.17;8.43;;;4.30;99.90;;;;;;4943566;29;20182;-60
2021/10/18 06:23:31;;;;;;;27.57;9.57;;;4.20;99.90;;;;;;4964781;28;20179;-60
2021/10/18 06:25:57;;;;;;;20.60;9.10;;;4.20;99.90;;;;;;4964929;28;20177;-60
2021/10/18 06:28:22;;;;;;;43.30;9.60;;;4.30;99.90;;;;;;4963140;28;20212;-61
2021/10/18 06:30:48;;;;;;;40.20;10.03;;;4.30;99.90;;;;;;4949168;28;20170;-60
2021/10/18 06:33:14;;;;;;;74.97;10.23;;;4.30;99.90;;;;;;4948775;28;20580;-61
2021/10/18 06:35:40;;;;;;;40.93;9.20;;;4.20;99.90;;;;;;4946184;28;20691;-60
2021/10/18 06:38:11;;;;;;;49.60;8.80;;;4.20;99.90;;;;;;4946678;28;20442;-61
2021/10/18 06:40:37;;;;;;;29.20;8.70;;;4.20;99.90;;;;;;4951461;28;20225;-60
2021/10/18 06:43:03;;;;;;;25.57;9.97;;;4.20;99.90;;;;;;4960872;28;20462;-61
2021/10/18 06:45:28;;;;;;;30.20;9.90;;;4.20;99.90;;;;;;4951243;28;20267;-61
2021/10/18 06:47:54;;;;;;;31.03;9.27;;;4.20;99.90;;;;;;4953554;28;20253;-61
2021/10/18 06:50:22;;;;;;;136.70;15.97;;;4.20;99.90;;;;;;4951197;28;20347;-60
2021/10/18 06:52:48;;;;;;;39.87;12.47;;;4.20;99.90;;;;;;4952525;28;20182;-60
2021/10/18 06:55:16;;;;;;;47.30;12.80;;;4.20;99.90;;;;;;4956482;28;20414;-61
2021/10/18 06:57:42;;;;;;;31.10;12.10;;;4.20;99.90;;;;;;4946654;28;20174;-60
2021/10/18 07:00:08;;;;;;;154.67;13.30;;;4.20;99.90;;;;;;4953547;29;20936;-60
2021/10/18 07:02:34;;;;;;;51.37;12.20;;;4.20;99.90;;;;;;4950825;28;20258;-61
2021/10/18 07:04:59;;;;;;;75.60;13.53;;;4.10;99.90;;;;;;4966145;28;20459;-59
2021/10/18 07:07:28;;;;;;;38.67;12.33;;;4.10;99.90;;;;;;4950795;28;20488;-58
2021/10/18 07:10:00;;;;;;;52.80;12.57;;;4.10;99.90;;;;;;4960362;28;20242;-60
2021/10/18 07:12:30;;;;;;;18.37;10.17;;;4.10;99.90;;;;;;4949451;28;20920;-60
2021/10/18 07:14:56;;;;;;;33.83;10.90;;;4.10;99.90;;;;;;4963139;28;20740;-60
2021/10/18 07:17:23;;;;;;;67.97;11.13;;;4.20;99.90;;;;;;4954113;28;20723;-61
2021/10/18 07:19:50;;;;;;;53.37;10.47;;;4.20;99.90;;;;;;4952608;28;20454;-59
2021/10/18 07:22:20;;;;;;;50.07;10.30;;;4.10;99.90;;;;;;4950891;28;20446;-60
2021/10/18 07:24:46;;;;;;;66.33;10.73;;;4.10;99.90;;;;;;4942282;28;20438;-60
2021/10/18 07:27:11;;;;;;;98.47;13.30;;;4.10;99.90;;;;;;4952148;28;20912;-60
2021/10/18 07:29:38;;;;;;;39.03;9.73;;;4.10;99.90;;;;;;4967108;28;20308;-60
2021/10/18 07:32:05;;;;;;;21.63;9.77;;;4.10;99.90;;;;;;4955449;28;20183;-60
2021/10/18 07:34:30;;;;;;;73.90;12.43;;;4.20;99.90;;;;;;4954127;28;20980;-60
2021/10/18 07:36:56;;;;;;;32.57;11.40;;;4.20;99.90;;;;;;4954045;28;20409;-60
2021/10/18 07:39:24;;;;;;;21.73;11.00;;;4.30;99.90;;;;;;4949319;29;20567;-60
2021/10/18 07:41:52;;;;;;;57.30;15.40;;;4.40;99.90;;;;;;4939388;28;20186;-60
2021/10/18 07:44:19;;;;;;;33.07;13.97;;;4.40;99.90;;;;;;4951629;28;20442;-60
2021/10/18 07:46:45;;;;;;;50.03;13.63;;;4.50;99.90;;;;;;4945555;28;20586;-61
2021/10/18 07:49:12;;;;;;;84.60;15.40;;;4.50;99.90;;;;;;4950018;28;20454;-60
2021/10/18 07:51:38;;;;;;;40.60;12.73;;;4.50;99.90;;;;;;4953458;28;20435;-62
2021/10/18 07:54:04;;;;;;;41.70;15.60;;;4.40;99.90;;;;;;4945360;28;20969;-60
2021/10/18 07:56:30;;;;;;;52.00;16.63;;;4.40;99.90;;;;;;4952960;28;20445;-60
2021/10/18 07:58:56;;;;;;;119.80;19.33;;;4.50;99.90;;;;;;4952008;28;20683;-60
2021/10/18 08:01:22;;;;;;;93.37;20.73;;;4.50;99.90;;;;;;4954499;28;20560;-60
2021/10/18 08:03:48;;;;;;;51.50;18.40;;;4.50;99.90;;;;;;4949545;28;20516;-60
2021/10/18 08:06:14;;;;;;;100.50;21.30;;;4.60;99.90;;;;;;4949404;28;20183;-60
2021/10/18 08:08:51;;;;;;;62.27;23.57;;;4.60;99.90;;;;;;4944302;28;20257;-60
2021/10/18 08:11:17;;;;;;;65.67;20.30;;;4.70;99.90;;;;;;4951239;28;20182;-60
2021/10/18 08:13:43;;;;;;;119.37;23.67;;;4.80;99.90;;;;;;4953093;28;20441;-60
2021/10/18 08:16:09;;;;;;;71.90;22.50;;;4.80;99.90;;;;;;4943996;28;20454;-60
2021/10/18 08:18:35;;;;;;;180.37;25.00;;;4.80;99.90;;;;;;4952132;28;20560;-60
2021/10/18 08:21:01;;;;;;;67.67;23.40;;;4.80;99.90;;;;;;4965582;28;20589;-60
2021/10/18 08:23:27;;;;;;;59.57;21.50;;;4.80;99.90;;;;;;4966593;28;20193;-60
2021/10/18 08:25:52;;;;;;;64.87;21.93;;;4.90;99.90;;;;;;4949616;28;20438;-60
2021/10/18 08:28:18;;;;;;;73.57;21.37;;;5.00;99.90;;;;;;4957134;28;20213;-59
2021/10/18 08:30:44;;;;;;;56.03;20.43;;;5.10;99.90;;;;;;4953075;28;20174;-60
2021/10/18 08:33:09;;;;;;;68.00;21.97;;;5.20;99.90;;;;;;4948615;28;20643;-60
2021/10/18 08:35:35;;;;;;;69.80;23.63;;;5.30;99.90;;;;;;4947610;28;20252;-61
2021/10/18 08:41:06;;;;;;;51.60;19.83;;;5.50;99.90;;;;;;4949220;28;20473;-61
2021/10/18 08:44:14;;;;;;;51.27;18.33;;;5.70;99.90;;;;;;4944809;28;20495;-60
2021/10/18 08:46:19;;;;;;;26.13;13.20;;;5.80;99.90;;;;;;4946267;28;20434;-61
2021/10/18 08:48:50;;;;;;;42.33;17.63;;;5.90;99.90;;;;;;4950109;28;20473;-60
2021/10/18 08:51:16;;;;;;;43.67;18.73;;;5.90;99.90;;;;;;4941587;29;20562;-60
2021/10/18 08:53:42;;;;;;;43.47;17.40;;;6.00;99.90;;;;;;4951277;28;20749;-61
2021/10/18 08:56:07;;;;;;;33.63;16.53;;;6.10;99.90;;;;;;4946149;28;20183;-60
2021/10/18 08:58:33;;;;;;;33.00;15.67;;;6.30;99.90;;;;;;4949236;28;20671;-60
2021/10/18 09:00:58;;;;;;;41.33;16.90;;;6.50;99.90;;;;;;4944639;28;20222;-60
2021/10/18 09:03:28;;;;;;;43.17;18.97;;;6.70;99.90;;;;;;4949598;28;20262;-61
2021/10/18 09:06:13;;;;;;;35.97;15.40;;;6.90;99.90;;;;;;4946234;28;20183;-60
2021/10/18 09:09:02;;;;;;;30.30;14.40;;;7.00;99.90;;;;;;4950668;29;20458;-61
2021/10/18 09:11:29;;;;;;;27.23;13.20;;;7.20;99.90;;;;;;4946619;28;20429;-61
2021/10/18 09:13:59;;;;;;;36.93;14.87;;;7.20;99.90;;;;;;4957046;28;20433;-60
2021/10/18 09:16:32;;;;;;;21.53;12.23;;;7.30;99.90;;;;;;4953236;28;20873;-60
2021/10/18 09:19:05;;;;;;;36.03;14.00;;;7.30;99.90;;;;;;4948069;29;21137;-60
2021/10/18 09:21:34;;;;;;;24.67;13.50;;;7.40;99.90;;;;;;4950230;28;20433;-60
2021/10/18 09:24:01;;;;;;;24.97;12.60;;;7.50;99.90;;;;;;4945254;28;20470;-61
2021/10/18 09:26:28;;;;;;;24.40;13.50;;;7.50;99.90;;;;;;4942453;28;20453;-60
2021/10/18 09:28:55;;;;;;;30.30;14.07;;;7.60;99.90;;;;;;4951294;28;20446;-60
2021/10/18 09:31:21;;;;;;;35.60;15.03;;;7.70;99.90;;;;;;4940991;28;20427;-60
2021/10/18 09:33:57;;;;;;;26.53;14.30;;;7.90;99.90;;;;;;4950604;28;20463;-60
2021/10/18 09:36:30;;;;;;;25.80;15.00;;;8.00;99.90;;;;;;4941807;29;20435;-61
2021/10/18 09:39:21;;;;;;;30.80;13.47;;;8.10;99.90;;;;;;4940931;29;20464;-59
2021/10/18 09:42:07;;;;;;;24.33;13.10;;;8.10;99.90;;;;;;4947167;28;20434;-61
2021/10/18 10:52:51;;;;;;;13.83;9.83;;;13.20;99.90;;;;;;4950264;28;20464;-59
2021/10/18 10:55:37;;;;;;;15.53;10.23;;;13.60;99.90;;;;;;4952730;28;20435;-59
2021/10/18 10:58:24;;;;;;;13.80;9.07;;;14.00;99.90;;;;;;4946991;28;20489;-62
2021/10/18 11:00:49;;;;;;;13.60;9.63;;;14.50;99.70;;;;;;4960525;28;20456;-60
2021/10/18 11:03:30;;;;;;;14.93;9.17;;;15.00;97.60;;;;;;4959186;28;21131;-62
2021/10/18 11:06:04;;;;;;;13.20;8.50;;;15.40;95.00;;;;;;4945906;28;20257;-60
2021/10/18 11:08:45;;;;;;;12.97;8.40;;;15.90;94.40;;;;;;4941506;28;20470;-62
2021/10/18 11:11:15;;;;;;;11.17;7.77;;;16.50;90.90;;;;;;4942185;28;20819;-60
2021/10/18 11:13:57;;;;;;;10.07;8.27;;;17.10;80.10;;;;;;4953977;28;20481;-62
2021/10/18 11:16:27;;;;;;;12.70;9.03;;;17.60;71.50;;;;;;4949006;28;20457;-61
2021/10/18 11:18:58;;;;;;;10.30;7.90;;;18.00;63.70;;;;;;4948236;28;20442;-62
2021/10/18 11:21:29;;;;;;;10.10;7.23;;;18.30;62.00;;;;;;4945524;28;20469;-61
2021/10/18 11:23:59;;;;;;;8.33;6.80;;;18.60;57.70;;;;;;4940653;28;20522;-60
2021/10/18 11:26:26;;;;;;;8.23;6.17;;;19.10;58.80;;;;;;4942571;29;20435;-62
2021/10/18 11:28:57;;;;;;;7.67;6.70;;;19.60;58.60;;;;;;4950959;28;20559;-62
2021/10/18 11:31:37;;;;;;;8.03;6.60;;;20.10;57.50;;;;;;4947721;28;20426;-61
2021/10/18 11:34:20;;;;;;;7.73;6.40;;;20.60;54.60;;;;;;4955526;28;20437;-60
2021/10/18 11:36:48;;;;;;;6.90;5.93;;;21.00;52.20;;;;;;4962532;28;20476;-61
2021/10/18 11:39:21;;;;;;;8.50;6.90;;;21.50;51.10;;;;;;4948679;28;20480;-62
2021/10/18 11:41:58;;;;;;;8.33;6.20;;;22.00;50.20;;;;;;4952087;28;20460;-63
2021/10/18 11:44:50;;;;;;;7.73;6.30;;;22.40;48.60;;;;;;4944966;28;20181;-64
2021/10/18 11:47:28;;;;;;;5.93;5.18;;;22.90;48.30;;;;;;4949285;28;20202;-63
2021/10/18 11:50:12;;;;;;;5.07;4.57;;;23.20;45.40;;;;;;4962199;28;20198;-63
2021/10/18 11:52:50;;;;;;;4.63;4.18;;;23.50;46.30;;;;;;4952269;28;20205;-63
2021/10/18 11:55:24;;;;;;;4.57;3.85;;;24.00;45.70;;;;;;4949906;28;20178;-64
2021/10/18 11:57:52;;;;;;;6.95;4.68;;;24.60;44.00;;;;;;4958172;28;20205;-63
2021/10/18 12:00:28;;;;;;;5.80;3.50;;;25.00;43.30;;;;;;4951967;28;20192;-62
2021/10/18 12:02:59;;;;;;;4.72;3.67;;;25.20;42.10;;;;;;4955016;28;20226;-65
2021/10/18 12:05:28;;;;;;;4.00;3.60;;;25.40;41.10;;;;;;4949016;28;20175;-63
2021/10/18 12:10:29;;;;;;;3.75;3.22;;;25.50;40.40;;;;;;4968101;28;20208;-59
2021/10/18 12:13:06;;;;;;;3.63;3.20;;;25.90;38.40;;;;;;4966392;28;20184;-58
2021/10/18 12:15:43;;;;;;;3.92;3.50;;;26.10;39.50;;;;;;4958754;28;20171;-59
2021/10/18 12:18:09;;;;;;;3.83;3.13;;;26.30;39.80;;;;;;4966684;28;20215;-59
2021/10/18 12:20:35;;;;;;;4.47;2.80;;;26.50;39.10;;;;;;4963630;28;20225;-57
2021/10/18 12:23:38;;;;;;;4.18;3.42;;;26.40;37.20;;;;;;4969527;28;20667;-54
2021/10/18 12:26:19;;;;;;;4.00;3.00;;;26.00;37.50;;;;;;4933719;29;20203;-57
2021/10/18 12:28:59;;;;;;;4.05;3.22;;;25.80;38.40;;;;;;4961976;28;20287;-54
2021/10/18 12:31:30;;;;;;;3.55;3.25;;;25.60;39.50;;;;;;4970958;28;20194;-58
2021/10/18 12:34:04;;;;;;;3.10;2.80;;;25.40;38.90;;;;;;4964479;28;20256;-56
2021/10/18 12:36:30;;;;;;;3.50;3.15;;;25.30;39.20;;;;;;4966047;28;20186;-56
2021/10/18 12:38:56;;;;;;;7.50;3.05;;;25.40;39.60;;;;;;4969474;28;20203;-55
2021/10/18 12:41:23;;;;;;;4.53;3.35;;;25.50;39.50;;;;;;4966859;28;20258;-55
2021/10/18 12:43:50;;;;;;;10.00;4.05;;;25.40;40.10;;;;;;4968024;28;20318;-59
2021/10/18 12:46:26;;;;;;;4.03;2.83;;;25.40;39.90;;;;;;4969921;28;20177;-58
2021/10/18 12:49:05;;;;;;;4.18;3.33;;;25.40;40.20;;;;;;4973877;28;20332;-57
2021/10/18 12:51:47;;;;;;;3.70;3.37;;;25.40;40.10;;;;;;4971359;28;20256;-58
2021/10/18 12:54:41;;;;;;;3.90;3.40;;;25.40;39.60;;;;;;4950786;29;20177;-59
2021/10/18 12:57:08;;;;;;;5.33;3.23;;;25.10;40.00;;;;;;4952325;28;20183;-57
2021/10/18 12:59:55;;;;;;;4.17;3.77;;;24.80;40.90;;;;;;4970655;28;20280;-59
2021/10/18 13:02:26;;;;;;;5.47;3.77;;;24.60;41.30;;;;;;4969758;28;20181;-58
2021/10/18 13:04:57;;;;;;;4.60;4.07;;;24.20;41.50;;;;;;4974394;28;20185;-58
2021/10/18 13:07:23;;;;;;;5.43;3.80;;;23.80;42.10;;;;;;4971435;28;20189;-55
2021/10/18 13:09:48;;;;;;;5.23;4.40;;;23.40;42.60;;;;;;4970241;28;20471;-58
2021/10/18 13:12:14;;;;;;;5.00;3.87;;;23.00;43.00;;;;;;4971126;28;20220;-56
2021/10/18 13:14:40;;;;;;;7.17;4.20;;;22.70;43.70;;;;;;4964093;28;20184;-56
2021/10/18 13:17:05;;;;;;;7.17;4.07;;;22.40;44.30;;;;;;4969169;28;20197;-56
2021/10/18 13:19:31;;;;;;;6.00;4.07;;;22.20;45.70;;;;;;4965600;28;20237;-58
2021/10/18 13:21:56;;;;;;;5.87;4.57;;;22.10;45.00;;;;;;4967387;28;20190;-58
2021/10/18 13:24:22;;;;;;;6.57;4.63;;;22.00;45.50;;;;;;4968739;28;20170;-55
2021/10/18 13:26:48;;;;;;;11.20;4.63;;;22.10;45.70;;;;;;4965826;28;20687;-57
2021/10/18 13:29:13;;;;;;;5.10;4.47;;;22.20;45.50;;;;;;4968766;28;20201;-58
2021/10/18 13:31:39;;;;;;;6.07;4.40;;;22.20;45.20;;;;;;4970811;28;20174;-55
2021/10/18 13:34:04;;;;;;;8.07;4.97;;;22.00;45.50;;;;;;4969161;28;20564;-56
2021/10/18 13:36:30;;;;;;;7.30;4.67;;;21.90;45.50;;;;;;4951722;28;20188;-56
2021/10/18 13:38:57;;;;;;;6.60;4.77;;;22.00;45.00;;;;;;4958706;28;20272;-57
2021/10/18 13:41:23;;;;;;;7.30;4.50;;;22.00;45.60;;;;;;4970061;28;20170;-55
2021/10/18 13:43:48;;;;;;;6.67;4.87;;;22.10;45.90;;;;;;4969795;28;20867;-55
2021/10/18 13:46:14;;;;;;;6.50;3.97;;;22.20;45.40;;;;;;4970722;28;20248;-57
2021/10/18 13:48:41;;;;;;;9.03;4.73;;;22.20;45.80;;;;;;4969951;28;20264;-58
2021/10/18 13:51:06;;;;;;;6.40;5.20;;;22.20;46.20;;;;;;4965316;28;20575;-57
2021/10/18 13:53:32;;;;;;;6.40;5.40;;;22.10;46.20;;;;;;4959343;28;20983;-57
2021/10/18 13:55:58;;;;;;;5.97;4.90;;;22.10;46.40;;;;;;4976502;28;20204;-56
2021/10/18 13:58:23;;;;;;;6.53;5.00;;;22.00;46.50;;;;;;4989717;28;20617;-56
2021/10/18 14:00:49;;;;;;;5.00;4.50;;;21.80;46.20;;;;;;4974549;28;20434;-54